Terminal Aerodrome Forecast
Issued by NWS

Home | Current Version | Previous Version | Graphics & Text | Print | Product List | Glossary On
Versions: 1 2 3 4 5 6 7 8 9 10 11 12 13 14 15 16 17 18 19 20
386
FTUS43 KICT 231124
TAFCNU
TAF
KCNU 231124Z 2312/2412 36009KT P6SM SCT035 BKN070
      TEMPO 2312/2316 BKN035
     FM240000 04005KT P6SM SKC=

USA.gov is the U.S. government's official web portal to all federal, state and local government web resources and services.